Time;durP1;ratioP1;P1;durP2;ratioP2;P2;SDS_P1;SDS_P2;PMS_P1;PMS_P2;Temp;Humidity;BMP_temperature;BMP_pressure;BME280_temperature;BME280_humidity;BME280_pressure;Samples;Min_cycle;Max_cycle;Signal;HPM_P1;HPM_P2
2023/11/11 00:00:37;;;;;;;2.72;1.00;;;6.70;99.90;;;;;;5026592;28;20045;-80
2023/11/11 00:03:06;;;;;;;0.52;0.52;;;6.70;99.90;;;;;;5036722;28;20052;-81
2023/11/11 00:05:32;;;;;;;1.48;1.48;;;6.70;99.90;;;;;;5027602;28;20459;-82
2023/11/11 00:07:58;;;;;;;;;;;6.70;99.90;;;;;;5037439;28;20076;-81
2023/11/11 00:10:23;;;;;;;0.40;0.40;;;6.70;99.90;;;;;;5042993;28;19921;-80
2023/11/11 00:12:49;;;;;;;0.57;0.57;;;6.70;99.90;;;;;;5041474;28;20040;-80
2023/11/11 00:15:15;;;;;;;0.50;0.50;;;6.60;99.90;;;;;;5024265;28;20047;-81
2023/11/11 00:17:41;;;;;;;0.60;0.60;;;6.60;99.90;;;;;;5023874;28;20478;-82
2023/11/11 00:20:13;;;;;;;0.60;0.60;;;6.70;99.90;;;;;;5018214;28;20041;-79
2023/11/11 00:22:48;;;;;;;0.60;0.60;;;6.60;99.90;;;;;;5021006;28;20656;-80
2023/11/11 00:25:16;;;;;;;0.47;0.47;;;6.60;99.90;;;;;;5023980;28;20137;-79
2023/11/11 00:27:43;;;;;;;0.45;0.45;;;6.50;99.90;;;;;;5012216;28;20120;-83
2023/11/11 00:30:10;;;;;;;0.70;0.70;;;6.50;99.90;;;;;;5010641;28;20042;-80
2023/11/11 00:32:36;;;;;;;0.60;0.60;;;6.50;99.90;;;;;;5024543;28;20399;-79
2023/11/11 00:35:02;;;;;;;0.50;0.50;;;6.60;99.90;;;;;;5062128;28;20048;-81
2023/11/11 00:37:30;;;;;;;0.80;0.80;;;6.40;99.90;;;;;;5030601;28;20045;-80
2023/11/11 00:39:58;;;;;;;0.50;0.50;;;6.30;99.90;;;;;;5047652;28;20351;-80
2023/11/11 00:42:31;;;;;;;0.60;0.60;;;6.30;99.90;;;;;;5033359;28;20083;-81
2023/11/11 00:44:56;;;;;;;0.45;0.45;;;6.30;99.90;;;;;;5014801;28;20041;-81
2023/11/11 00:47:22;;;;;;;0.40;0.40;;;6.30;99.90;;;;;;5017365;28;20099;-83
2023/11/11 00:49:49;;;;;;;0.55;0.55;;;6.20;99.90;;;;;;5049012;28;20083;-81
2023/11/11 00:52:16;;;;;;;0.63;0.63;;;6.10;99.90;;;;;;5035187;28;20075;-80
2023/11/11 00:54:42;;;;;;;0.60;0.60;;;6.60;99.90;;;;;;5031472;28;20063;-81
2023/11/11 00:57:07;;;;;;;0.60;0.60;;;6.10;99.90;;;;;;5052385;28;20048;-81
2023/11/11 00:59:34;;;;;;;0.50;0.50;;;6.10;99.90;;;;;;5002557;28;20499;-80
2023/11/11 01:02:00;;;;;;;0.50;0.50;;;6.10;99.90;;;;;;5033780;28;20106;-81
2023/11/11 01:04:27;;;;;;;0.60;0.60;;;6.10;99.90;;;;;;5033725;28;20055;-81
2023/11/11 01:06:52;;;;;;;0.60;0.60;;;6.10;99.90;;;;;;5036136;28;20056;-82
2023/11/11 01:09:19;;;;;;;0.52;0.52;;;6.10;99.90;;;;;;5049071;28;20041;-82
2023/11/11 01:11:46;;;;;;;0.60;0.60;;;6.10;99.90;;;;;;5035770;28;20040;-81
2023/11/11 01:14:12;;;;;;;16.42;1.95;;;6.00;99.90;;;;;;5031285;28;20045;-82
2023/11/11 01:16:38;;;;;;;0.43;0.43;;;6.10;99.90;;;;;;5035443;28;20390;-81
2023/11/11 01:19:04;;;;;;;0.40;0.40;;;6.00;99.90;;;;;;5043449;28;20036;-81
2023/11/11 01:21:30;;;;;;;0.47;0.47;;;6.00;99.90;;;;;;5037906;28;20044;-80
2023/11/11 01:23:57;;;;;;;0.43;0.43;;;6.00;99.90;;;;;;5063114;28;20398;-80
2023/11/11 01:26:24;;;;;;;0.60;0.60;;;6.00;99.90;;;;;;5041799;28;20347;-83
2023/11/11 01:28:50;;;;;;;;;;;6.10;99.90;;;;;;5036364;28;20033;-80
2023/11/11 01:31:15;;;;;;;0.50;0.50;;;6.10;99.90;;;;;;5058816;28;19999;-82
2023/11/11 01:33:41;;;;;;;0.60;0.60;;;6.10;99.90;;;;;;5024638;28;20120;-83
2023/11/11 01:36:07;;;;;;;0.50;0.50;;;6.10;99.90;;;;;;5028771;28;20062;-80
2023/11/11 01:38:34;;;;;;;;;;;6.10;99.90;;;;;;5051243;28;20072;-80
2023/11/11 01:41:03;;;;;;;0.60;0.60;;;6.10;99.90;;;;;;5048702;28;19923;-84
2023/11/11 01:43:29;;;;;;;0.90;0.90;;;6.00;99.90;;;;;;5042380;28;20084;-82
2023/11/11 01:45:58;;;;;;;0.50;0.50;;;6.00;99.90;;;;;;5048452;28;20054;-81
2023/11/11 01:48:25;;;;;;;0.43;0.43;;;5.90;99.90;;;;;;5050637;28;20051;-83
2023/11/11 01:50:52;;;;;;;5.88;0.80;;;5.80;99.90;;;;;;5027957;28;20041;-80
2023/11/11 01:53:19;;;;;;;0.60;0.60;;;5.90;99.90;;;;;;5046880;28;20044;-81
2023/11/11 01:55:46;;;;;;;0.57;0.57;;;5.00;99.90;;;;;;5034543;28;20124;-80
2023/11/11 01:58:13;;;;;;;0.50;0.50;;;5.90;99.90;;;;;;5044258;28;20049;-81
2023/11/11 02:00:40;;;;;;;0.60;0.60;;;6.10;99.90;;;;;;5048414;28;21329;-80
2023/11/11 02:03:06;;;;;;;0.50;0.50;;;5.90;99.90;;;;;;5032665;28;20123;-81
2023/11/11 02:05:32;;;;;;;0.60;0.60;;;6.20;99.90;;;;;;5052970;28;20697;-81
2023/11/11 02:08:00;;;;;;;0.50;0.50;;;5.90;99.90;;;;;;5029071;28;20053;-80
2023/11/11 02:10:26;;;;;;;0.45;0.45;;;5.80;99.90;;;;;;5078478;28;20040;-81
2023/11/11 02:12:53;;;;;;;;;;;5.80;99.90;;;;;;5034375;28;20048;-80
2023/11/11 02:15:19;;;;;;;0.60;0.60;;;5.80;99.90;;;;;;5051466;28;19927;-82
2023/11/11 02:17:45;;;;;;;0.60;0.60;;;5.80;99.90;;;;;;5029767;28;20072;-82
2023/11/11 02:20:11;;;;;;;0.60;0.60;;;5.80;99.90;;;;;;5057884;28;20083;-81
2023/11/11 02:22:41;;;;;;;0.60;0.60;;;5.80;99.90;;;;;;5050169;28;20045;-80
2023/11/11 02:25:08;;;;;;;0.60;0.60;;;5.90;99.90;;;;;;5044975;28;20183;-82
2023/11/11 02:27:35;;;;;;;0.60;0.60;;;5.90;99.90;;;;;;5053254;28;20048;-80
2023/11/11 02:30:06;;;;;;;0.40;0.40;;;6.00;99.90;;;;;;5018770;28;20045;-81
2023/11/11 02:32:32;;;;;;;0.90;0.90;;;6.00;99.90;;;;;;5037502;28;20056;-81
2023/11/11 02:34:58;;;;;;;0.50;0.50;;;6.00;99.90;;;;;;5045726;28;20099;-80
2023/11/11 02:37:24;;;;;;;0.50;0.50;;;6.60;99.90;;;;;;5054554;28;20028;-81
2023/11/11 02:39:50;;;;;;;;;;;6.20;99.90;;;;;;5032420;28;20036;-80
2023/11/11 02:42:15;;;;;;;0.50;0.50;;;6.10;99.90;;;;;;5044842;28;19925;-80
2023/11/11 02:44:41;;;;;;;0.60;0.60;;;6.20;99.90;;;;;;5015585;28;20073;-81
2023/11/11 02:47:07;;;;;;;0.70;0.70;;;6.20;99.90;;;;;;5038307;28;20048;-81
2023/11/11 02:49:32;;;;;;;0.85;0.85;;;6.20;99.90;;;;;;5044491;28;20033;-80
2023/11/11 02:51:58;;;;;;;0.57;0.57;;;6.20;99.90;;;;;;5030301;28;20044;-82
2023/11/11 02:54:25;;;;;;;0.63;0.63;;;6.20;99.90;;;;;;5049922;28;20041;-81
2023/11/11 02:56:51;;;;;;;0.60;0.60;;;6.30;99.90;;;;;;5029922;28;20052;-80
2023/11/11 02:59:18;;;;;;;0.60;0.60;;;6.20;99.90;;;;;;5041476;28;20471;-81
2023/11/11 03:01:44;;;;;;;0.50;0.50;;;6.20;99.90;;;;;;5048880;28;20040;-81
2023/11/11 03:04:11;;;;;;;0.52;0.52;;;6.10;99.90;;;;;;5050430;28;20102;-79
2023/11/11 03:06:43;;;;;;;0.45;0.45;;;6.20;99.90;;;;;;5035046;28;20061;-81
2023/11/11 03:09:10;;;;;;;0.55;0.55;;;6.10;99.90;;;;;;5031422;28;20128;-79
2023/11/11 03:11:37;;;;;;;0.70;0.70;;;6.00;99.90;;;;;;5052361;28;20037;-80
2023/11/11 03:14:03;;;;;;;0.50;0.50;;;6.00;99.90;;;;;;5045047;28;20398;-80
2023/11/11 03:16:38;;;;;;;;;;;6.00;99.90;;;;;;5054020;28;20405;-81
2023/11/11 03:19:05;;;;;;;0.50;0.50;;;6.00;99.90;;;;;;5061151;28;19917;-81
2023/11/11 03:21:34;;;;;;;0.50;0.50;;;6.10;99.90;;;;;;5056476;28;20030;-80
2023/11/11 03:24:02;;;;;;;0.60;0.60;;;6.10;99.90;;;;;;5039385;28;20105;-81
2023/11/11 03:26:29;;;;;;;0.60;0.60;;;6.10;99.90;;;;;;5030865;28;20469;-80
2023/11/11 03:28:54;;;;;;;0.50;0.50;;;6.20;99.90;;;;;;5027037;28;20052;-82
2023/11/11 03:31:20;;;;;;;0.60;0.60;;;6.20;99.90;;;;;;5051358;28;20045;-82
2023/11/11 03:33:46;;;;;;;0.60;0.60;;;6.20;99.90;;;;;;5043817;28;20044;-82
2023/11/11 03:36:15;;;;;;;0.50;0.50;;;6.10;99.90;;;;;;5052907;28;20051;-83
2023/11/11 03:38:41;;;;;;;0.50;0.50;;;6.10;99.90;;;;;;5031553;28;20040;-81
2023/11/11 03:41:07;;;;;;;0.57;0.57;;;6.50;99.90;;;;;;5035697;28;20047;-80
2023/11/11 03:43:33;;;;;;;0.47;0.47;;;6.00;99.90;;;;;;5047712;28;20036;-82
2023/11/11 03:45:59;;;;;;;0.52;0.52;;;6.00;99.90;;;;;;5030284;28;20400;-83
2023/11/11 03:48:25;;;;;;;0.50;0.50;;;6.00;99.90;;;;;;5030482;28;20049;-81
2023/11/11 03:50:51;;;;;;;0.40;0.40;;;6.00;99.90;;;;;;5010884;28;20045;-81
2023/11/11 03:53:23;;;;;;;0.60;0.60;;;6.00;99.90;;;;;;5013720;28;20064;-82
2023/11/11 03:55:49;;;;;;;;;;;6.00;99.90;;;;;;5041845;28;20041;-81
2023/11/11 03:58:15;;;;;;;0.60;0.60;;;6.00;99.90;;;;;;5057146;28;19936;-80
2023/11/11 04:00:44;;;;;;;0.57;0.57;;;6.10;99.90;;;;;;5033879;28;20383;-82
2023/11/11 04:03:10;;;;;;;0.68;0.68;;;6.00;99.90;;;;;;5042016;28;20064;-82
2023/11/11 04:05:36;;;;;;;0.60;0.60;;;6.00;99.90;;;;;;5051243;28;20482;-82
2023/11/11 04:08:03;;;;;;;0.60;0.60;;;5.90;99.90;;;;;;5010817;28;20069;-80
2023/11/11 04:10:30;;;;;;;0.50;0.50;;;5.90;99.90;;;;;;5027332;28;20044;-84
2023/11/11 04:13:00;;;;;;;1.33;1.33;;;5.90;99.90;;;;;;5028184;28;20206;-82
2023/11/11 04:15:26;;;;;;;0.45;0.45;;;5.90;99.90;;;;;;5029925;28;20041;-82
2023/11/11 04:17:52;;;;;;;0.60;0.60;;;5.80;99.90;;;;;;5031435;28;20068;-81
2023/11/11 04:20:18;;;;;;;0.30;0.30;;;5.90;99.90;;;;;;5019796;28;20049;-80
2023/11/11 04:22:44;;;;;;;0.50;0.50;;;5.80;99.90;;;;;;5046676;28;20046;-82
2023/11/11 04:25:12;;;;;;;0.40;0.40;;;5.80;99.90;;;;;;5029473;28;20038;-82
2023/11/11 04:27:42;;;;;;;1.20;1.15;;;5.90;99.90;;;;;;5057434;28;20044;-82
2023/11/11 04:30:09;;;;;;;0.52;0.52;;;6.30;99.90;;;;;;5019934;28;20041;-82
2023/11/11 04:32:35;;;;;;;0.50;0.50;;;5.90;99.90;;;;;;5031882;28;20037;-80
2023/11/11 04:35:01;;;;;;;;;;;5.80;99.90;;;;;;5029435;28;20071;-81
2023/11/11 04:37:26;;;;;;;0.60;0.60;;;5.90;99.90;;;;;;5035883;28;19917;-81
2023/11/11 04:39:57;;;;;;;0.60;0.60;;;6.00;99.90;;;;;;5045762;28;20040;-81
2023/11/11 04:42:24;;;;;;;0.50;0.50;;;6.00;99.90;;;;;;5044108;28;20110;-80
2023/11/11 04:44:51;;;;;;;0.60;0.60;;;6.00;99.90;;;;;;5023245;28;20029;-80
2023/11/11 04:47:18;;;;;;;0.70;0.70;;;6.10;99.90;;;;;;5039543;28;20047;-82
2023/11/11 04:49:44;;;;;;;0.47;0.47;;;6.10;99.90;;;;;;5054114;28;20042;-81
2023/11/11 04:52:10;;;;;;;0.60;0.60;;;6.10;99.90;;;;;;5051905;28;20045;-82
2023/11/11 04:54:36;;;;;;;0.50;0.50;;;7.20;99.90;;;;;;5035134;28;20553;-82
2023/11/11 04:57:02;;;;;;;;;;;6.20;99.90;;;;;;5050948;28;20052;-80
2023/11/11 04:59:29;;;;;;;0.52;0.52;;;6.20;99.90;;;;;;5044875;28;20282;-81
2023/11/11 05:01:55;;;;;;;0.60;0.60;;;6.20;99.90;;;;;;5043254;28;20580;-81
2023/11/11 05:04:22;;;;;;;0.50;0.50;;;6.20;99.90;;;;;;5049110;28;20072;-82
2023/11/11 05:06:49;;;;;;;0.60;0.60;;;6.20;99.90;;;;;;5025000;28;20063;-83
2023/11/11 05:09:15;;;;;;;0.50;0.50;;;6.20;99.90;;;;;;5052200;28;20044;-82
2023/11/11 05:11:41;;;;;;;0.50;0.50;;;6.20;99.90;;;;;;5026940;28;20033;-82
2023/11/11 05:14:12;;;;;;;0.60;0.60;;;6.30;99.90;;;;;;5046870;28;20048;-81
2023/11/11 05:16:40;;;;;;;0.60;0.60;;;6.30;99.90;;;;;;5029143;28;20551;-82
2023/11/11 05:19:12;;;;;;;0.60;0.60;;;6.30;99.90;;;;;;5056700;28;20070;-83
2023/11/11 05:21:38;;;;;;;0.60;0.60;;;6.50;99.90;;;;;;5043622;28;20182;-82
2023/11/11 05:24:05;;;;;;;0.50;0.50;;;6.30;99.90;;;;;;5034826;28;20080;-82
2023/11/11 05:26:31;;;;;;;0.50;0.50;;;6.30;99.90;;;;;;5034828;28;20044;-82
2023/11/11 05:28:57;;;;;;;0.60;0.60;;;6.30;99.90;;;;;;5031807;28;20099;-81
2023/11/11 05:31:24;;;;;;;0.40;0.40;;;6.20;99.90;;;;;;5029849;28;20037;-82
2023/11/11 05:33:51;;;;;;;0.52;0.52;;;6.20;99.90;;;;;;5028382;28;20095;-82
2023/11/11 05:36:20;;;;;;;0.60;0.60;;;6.20;99.90;;;;;;5036058;28;20076;-82
2023/11/11 05:38:48;;;;;;;0.60;0.60;;;6.20;99.90;;;;;;5031936;28;20101;-81
2023/11/11 05:41:14;;;;;;;0.50;0.50;;;6.20;99.90;;;;;;5042044;28;20120;-82
2023/11/11 05:43:40;;;;;;;0.60;0.60;;;6.90;99.90;;;;;;5055231;28;20124;-81
2023/11/11 05:46:08;;;;;;;0.60;0.60;;;6.20;99.90;;;;;;5040989;28;20093;-82
2023/11/11 05:48:37;;;;;;;0.50;0.50;;;6.20;99.90;;;;;;5033449;28;20056;-81
2023/11/11 05:51:04;;;;;;;0.50;0.50;;;6.20;99.90;;;;;;5055444;28;20120;-81
2023/11/11 05:53:31;;;;;;;0.50;0.50;;;6.20;99.90;;;;;;5013161;28;20052;-82
2023/11/11 05:55:58;;;;;;;0.60;0.60;;;6.20;99.90;;;;;;5026095;28;20044;-81
2023/11/11 05:58:24;;;;;;;0.60;0.60;;;6.20;99.90;;;;;;5051444;28;20058;-80
2023/11/11 06:00:50;;;;;;;0.50;0.50;;;6.20;99.90;;;;;;5019546;28;20052;-80
2023/11/11 06:03:15;;;;;;;0.55;0.55;;;6.20;99.90;;;;;;5026656;28;20099;-82
2023/11/11 06:05:41;;;;;;;0.45;0.45;;;6.20;99.90;;;;;;5046128;28;20049;-81
2023/11/11 06:08:09;;;;;;;0.52;0.52;;;6.20;99.90;;;;;;5041099;28;20059;-81
2023/11/11 06:10:36;;;;;;;0.50;0.50;;;6.20;99.90;;;;;;5017784;28;20059;-82
2023/11/11 06:13:05;;;;;;;0.50;0.50;;;6.20;99.90;;;;;;5016047;28;20138;-82
2023/11/11 06:15:32;;;;;;;0.50;0.50;;;6.30;99.90;;;;;;5054196;28;20467;-80
2023/11/11 06:17:57;;;;;;;0.50;0.50;;;6.20;99.90;;;;;;5051534;28;20041;-80
2023/11/11 06:20:23;;;;;;;0.57;0.57;;;6.40;99.90;;;;;;5040476;28;20052;-80
2023/11/11 06:22:53;;;;;;;0.70;0.70;;;6.30;99.90;;;;;;5048800;28;20041;-81
2023/11/11 06:25:19;;;;;;;0.60;0.60;;;6.30;99.90;;;;;;5010450;28;20029;-81
2023/11/11 06:27:48;;;;;;;0.60;0.60;;;6.40;99.90;;;;;;5028719;28;20405;-81
2023/11/11 06:30:16;;;;;;;0.60;0.60;;;6.30;99.90;;;;;;5033767;28;20041;-82
2023/11/11 06:32:46;;;;;;;0.45;0.45;;;6.30;99.90;;;;;;5016562;28;20041;-82
2023/11/11 06:35:12;;;;;;;0.60;0.60;;;6.30;99.90;;;;;;5030237;28;20098;-82
2023/11/11 06:37:40;;;;;;;0.60;0.60;;;6.30;99.90;;;;;;5033973;28;20046;-83
2023/11/11 06:40:09;;;;;;;0.60;0.60;;;6.30;99.90;;;;;;5057478;28;20060;-83
2023/11/11 06:42:38;;;;;;;0.50;0.50;;;6.30;99.90;;;;;;5025875;28;20045;-84
2023/11/11 06:45:08;;;;;;;0.60;0.60;;;6.30;99.90;;;;;;5051546;28;20072;-83
2023/11/11 06:47:34;;;;;;;0.40;0.40;;;6.30;99.90;;;;;;5016064;28;20537;-83
2023/11/11 06:50:00;;;;;;;0.45;0.45;;;6.20;99.90;;;;;;5069749;28;20169;-83
2023/11/11 06:52:26;;;;;;;0.55;0.55;;;6.20;99.90;;;;;;5055606;28;20370;-81
2023/11/11 06:54:51;;;;;;;0.50;0.50;;;6.20;99.90;;;;;;5057514;28;20036;-82
2023/11/11 06:57:18;;;;;;;0.60;0.60;;;6.20;99.90;;;;;;5018962;28;20033;-82
2023/11/11 06:59:43;;;;;;;0.50;0.50;;;6.20;99.90;;;;;;5032851;28;20119;-82
2023/11/11 07:02:12;;;;;;;0.50;0.50;;;6.20;99.90;;;;;;5026597;28;20128;-82
2023/11/11 07:04:44;;;;;;;0.60;0.60;;;6.20;99.90;;;;;;5018233;28;20033;-83
2023/11/11 07:07:11;;;;;;;0.52;0.52;;;6.30;99.90;;;;;;5021125;28;20087;-85
2023/11/11 07:09:41;;;;;;;0.70;0.70;;;6.20;99.90;;;;;;5028472;28;20383;-83
2023/11/11 07:12:07;;;;;;;0.68;0.68;;;6.20;99.90;;;;;;5041814;28;20457;-83
2023/11/11 07:14:34;;;;;;;0.50;0.50;;;6.20;99.90;;;;;;5023209;28;20142;-83
2023/11/11 07:17:00;;;;;;;0.50;0.50;;;6.20;99.90;;;;;;5024824;28;20053;-82
2023/11/11 07:19:26;;;;;;;0.60;0.60;;;6.20;99.90;;;;;;5030738;28;20052;-84
2023/11/11 07:21:52;;;;;;;0.47;0.47;;;6.20;99.90;;;;;;5036368;28;20511;-81
2023/11/11 07:24:18;;;;;;;0.60;0.60;;;6.20;99.90;;;;;;5021494;28;20048;-81
2023/11/11 07:26:44;;;;;;;0.50;0.50;;;6.40;99.90;;;;;;5027189;28;20029;-83
2023/11/11 07:29:10;;;;;;;0.55;0.55;;;6.20;99.90;;;;;;5025248;28;20064;-82
2023/11/11 07:31:36;;;;;;;0.52;0.52;;;6.20;99.90;;;;;;5038808;28;20036;-82
2023/11/11 07:34:03;;;;;;;0.65;0.65;;;6.20;99.90;;;;;;5030905;28;20041;-83
2023/11/11 07:36:28;;;;;;;;;;;6.20;99.90;;;;;;5024864;28;20083;-84
2023/11/11 07:38:54;;;;;;;0.60;0.60;;;6.10;99.90;;;;;;5014142;28;19952;-86
2023/11/11 07:41:23;;;;;;;0.50;0.50;;;6.10;99.90;;;;;;5042933;28;20080;-82
2023/11/11 07:43:48;;;;;;;0.50;0.50;;;6.10;99.90;;;;;;5013468;28;20068;-80
2023/11/11 07:46:19;;;;;;;0.55;0.55;;;6.10;99.90;;;;;;5042285;28;20047;-82
2023/11/11 07:48:45;;;;;;;0.60;0.60;;;6.10;99.90;;;;;;5046208;28;20120;-81
2023/11/11 07:51:10;;;;;;;0.57;0.57;;;6.10;99.90;;;;;;5042682;28;20052;-82
2023/11/11 07:53:36;;;;;;;0.60;0.60;;;6.10;99.90;;;;;;5042459;28;20485;-81
2023/11/11 07:56:04;;;;;;;0.47;0.47;;;5.80;99.90;;;;;;5020154;28;20044;-83
2023/11/11 07:58:30;;;;;;;0.45;0.45;;;6.10;99.90;;;;;;5046007;28;20083;-82
2023/11/11 08:00:56;;;;;;;0.52;0.52;;;6.10;99.90;;;;;;5012166;28;20080;-80
2023/11/11 08:03:24;;;;;;;0.55;0.55;;;6.10;99.90;;;;;;5022027;28;20151;-81
2023/11/11 08:05:51;;;;;;;0.50;0.50;;;6.10;99.90;;;;;;5024580;28;20041;-81
2023/11/11 08:08:17;;;;;;;0.45;0.45;;;6.30;99.90;;;;;;5014287;28;20064;-82
2023/11/11 08:10:45;;;;;;;0.50;0.50;;;6.10;99.90;;;;;;5041994;28;20033;-79
2023/11/11 08:13:10;;;;;;;0.55;0.55;;;6.10;99.90;;;;;;5030766;28;20048;-81
2023/11/11 08:15:36;;;;;;;0.60;0.60;;;6.20;99.90;;;;;;5021448;28;20053;-80
2023/11/11 08:18:03;;;;;;;0.40;0.40;;;6.20;99.90;;;;;;5038759;28;20041;-79
2023/11/11 08:20:29;;;;;;;0.57;0.57;;;6.20;99.90;;;;;;5030368;28;20045;-83
2023/11/11 08:22:55;;;;;;;0.40;0.40;;;6.20;99.90;;;;;;5027578;28;20489;-80
2023/11/11 08:25:22;;;;;;;1.05;1.05;;;6.20;99.90;;;;;;5030921;28;20080;-81
2023/11/11 08:27:50;;;;;;;0.40;0.40;;;6.70;99.90;;;;;;5015244;28;20053;-81
2023/11/11 08:30:16;;;;;;;0.50;0.50;;;6.20;99.90;;;;;;5039000;28;20454;-82
2023/11/11 08:32:43;;;;;;;0.50;0.50;;;6.20;99.90;;;;;;5043948;28;20049;-83
2023/11/11 08:35:15;;;;;;;0.52;0.52;;;6.20;99.90;;;;;;5023047;28;20132;-82
2023/11/11 08:37:45;;;;;;;0.43;0.43;;;6.30;99.90;;;;;;5006412;28;20040;-81
2023/11/11 08:40:11;;;;;;;0.45;0.45;;;6.20;99.90;;;;;;5049432;28;20553;-81
2023/11/11 08:42:39;;;;;;;0.90;0.90;;;6.20;99.90;;;;;;5019952;28;20053;-81
2023/11/11 08:45:09;;;;;;;0.60;0.60;;;6.40;99.90;;;;;;5029292;28;20040;-82
2023/11/11 08:47:36;;;;;;;0.45;0.45;;;6.30;99.90;;;;;;5004041;28;20075;-81
2023/11/11 08:50:04;;;;;;;0.50;0.50;;;6.30;99.90;;;;;;5025241;28;20040;-84
2023/11/11 08:52:34;;;;;;;0.40;0.40;;;6.30;99.90;;;;;;5043404;28;20046;-82
2023/11/11 08:55:00;;;;;;;0.50;0.50;;;6.50;99.90;;;;;;5028989;28;20045;-81
2023/11/11 08:57:26;;;;;;;0.57;0.57;;;6.30;99.90;;;;;;5025237;28;20125;-82
2023/11/11 08:59:52;;;;;;;0.50;0.50;;;6.40;99.90;;;;;;5013669;28;20121;-81
2023/11/11 09:02:19;;;;;;;0.50;0.50;;;6.40;99.90;;;;;;5017564;28;20091;-81
2023/11/11 09:04:45;;;;;;;0.50;0.50;;;6.40;99.90;;;;;;5047576;28;20073;-81
2023/11/11 09:07:11;;;;;;;0.50;0.50;;;6.50;99.90;;;;;;5079286;28;20064;-81
2023/11/11 09:09:37;;;;;;;0.60;0.60;;;7.10;99.90;;;;;;5044042;28;20040;-82
2023/11/11 09:12:03;;;;;;;0.60;0.60;;;6.60;99.90;;;;;;5019594;28;20095;-81
2023/11/11 09:14:33;;;;;;;0.60;0.60;;;6.60;99.90;;;;;;5041375;28;20037;-81
2023/11/11 09:17:07;;;;;;;17.38;1.50;;;6.60;99.90;;;;;;5047671;28;20048;-82
2023/11/11 09:19:39;;;;;;;0.65;0.65;;;6.70;99.90;;;;;;5052701;28;20040;-83
2023/11/11 09:22:05;;;;;;;0.60;0.60;;;6.70;99.90;;;;;;5057775;28;20037;-80
2023/11/11 09:24:31;;;;;;;0.57;0.57;;;6.70;99.90;;;;;;5035681;28;20542;-81
2023/11/11 09:26:57;;;;;;;;;;;6.80;99.90;;;;;;5052177;28;20105;-83
2023/11/11 09:29:29;;;;;;;0.50;0.50;;;6.80;99.90;;;;;;5059520;28;19942;-82
2023/11/11 09:31:55;;;;;;;;;;;6.80;99.90;;;;;;5042604;28;20076;-81
2023/11/11 09:34:27;;;;;;;0.50;0.50;;;6.70;99.90;;;;;;5033314;28;20387;-81
2023/11/11 09:36:55;;;;;;;0.60;0.60;;;6.60;99.90;;;;;;5025046;28;20040;-81
2023/11/11 09:39:24;;;;;;;0.50;0.50;;;6.50;99.90;;;;;;5047627;28;20107;-82
2023/11/11 09:41:52;;;;;;;0.60;0.60;;;6.80;99.90;;;;;;5014436;28;20049;-82
2023/11/11 09:44:18;;;;;;;0.60;0.60;;;6.40;99.90;;;;;;5019269;28;20033;-83
2023/11/11 09:46:55;;;;;;;0.50;0.50;;;6.40;99.90;;;;;;5050550;28;20076;-83
2023/11/11 09:49:21;;;;;;;0.50;0.50;;;6.30;99.90;;;;;;5033804;28;20478;-83
2023/11/11 09:51:48;;;;;;;0.50;0.50;;;6.30;99.90;;;;;;5030874;28;20041;-82
2023/11/11 09:54:14;;;;;;;0.60;0.60;;;6.30;99.90;;;;;;5017899;28;20078;-80
2023/11/11 09:56:42;;;;;;;0.60;0.60;;;6.30;99.90;;;;;;5038729;28;20037;-81
2023/11/11 09:59:10;;;;;;;0.55;0.55;;;6.70;99.90;;;;;;5072851;28;20037;-81
2023/11/11 10:01:38;;;;;;;0.50;0.50;;;6.20;99.90;;;;;;5052038;28;20051;-80
2023/11/11 10:04:04;;;;;;;0.50;0.50;;;6.20;99.90;;;;;;5063450;28;20040;-81
2023/11/11 10:06:30;;;;;;;;;;;6.20;99.90;;;;;;5034804;28;20135;-80
2023/11/11 10:08:56;;;;;;;0.60;0.60;;;6.20;99.90;;;;;;5023812;28;19920;-80
2023/11/11 10:11:23;;;;;;;0.60;0.60;;;6.30;99.90;;;;;;5014504;28;20049;-81
2023/11/11 10:13:53;;;;;;;0.55;0.55;;;6.30;99.90;;;;;;5041116;28;20524;-81
2023/11/11 10:16:21;;;;;;;0.60;0.60;;;6.30;99.90;;;;;;5035561;28;20052;-82
2023/11/11 10:18:49;;;;;;;0.40;0.40;;;6.30;99.90;;;;;;5051399;28;20094;-80
2023/11/11 10:21:16;;;;;;;0.55;0.55;;;6.40;99.90;;;;;;5038514;28;20366;-80
2023/11/11 10:23:47;;;;;;;0.50;0.50;;;6.50;99.90;;;;;;5034512;28;20116;-79
2023/11/11 10:26:16;;;;;;;0.50;0.50;;;6.50;99.90;;;;;;5034463;28;20044;-82
2023/11/11 10:28:56;;;;;;;0.50;0.50;;;6.70;99.90;;;;;;5038549;28;20041;-81
2023/11/11 10:31:23;;;;;;;0.55;0.55;;;6.60;99.90;;;;;;5055452;28;20051;-81
2023/11/11 10:33:48;;;;;;;0.30;0.30;;;6.60;99.90;;;;;;5017703;28;20051;-82
2023/11/11 10:36:17;;;;;;;0.50;0.50;;;6.70;99.90;;;;;;5030373;28;20175;-81
2023/11/11 10:38:43;;;;;;;0.50;0.50;;;6.80;99.90;;;;;;5054046;28;20101;-81
2023/11/11 10:41:09;;;;;;;0.50;0.50;;;6.80;99.90;;;;;;5052227;28;20452;-81
2023/11/11 10:43:36;;;;;;;0.50;0.50;;;6.90;99.90;;;;;;5055509;28;20033;-81
2023/11/11 10:46:02;;;;;;;;;;;6.90;99.90;;;;;;5043073;28;20060;-81
2023/11/11 10:48:29;;;;;;;0.40;0.40;;;7.00;99.90;;;;;;5040145;28;19917;-83
2023/11/11 10:50:55;;;;;;;0.50;0.50;;;7.20;99.90;;;;;;5049579;28;20045;-81
2023/11/11 10:53:24;;;;;;;0.57;0.57;;;7.30;99.90;;;;;;5062189;28;20049;-80
2023/11/11 10:55:51;;;;;;;0.50;0.50;;;7.40;99.90;;;;;;5041310;28;20048;-84
2023/11/11 10:58:17;;;;;;;0.43;0.43;;;7.40;99.90;;;;;;5051575;28;20127;-81
2023/11/11 11:00:48;;;;;;;0.60;0.60;;;7.50;99.90;;;;;;5018051;28;20068;-83
2023/11/11 11:03:21;;;;;;;0.32;0.32;;;7.60;99.90;;;;;;5054463;28;20080;-84
2023/11/11 11:06:06;;;;;;;0.43;0.43;;;7.60;99.90;;;;;;5035633;28;20397;-82
2023/11/11 11:08:46;;;;;;;0.50;0.50;;;7.70;99.90;;;;;;5053282;28;20080;-81
2023/11/11 11:11:34;;;;;;;0.60;0.60;;;7.80;99.90;;;;;;5047840;28;20156;-82
2023/11/11 11:14:19;;;;;;;0.50;0.50;;;7.80;99.90;;;;;;5053115;28;20079;-84
2023/11/11 11:16:49;;;;;;;0.40;0.40;;;7.80;99.90;;;;;;5049012;28;20483;-81
2023/11/11 11:19:15;;;;;;;0.45;0.45;;;7.80;99.90;;;;;;5014090;28;20101;-83
2023/11/11 11:21:41;;;;;;;0.60;0.60;;;8.10;99.90;;;;;;5042108;28;20285;-83
2023/11/11 11:24:14;;;;;;;0.50;0.50;;;7.70;99.90;;;;;;5038317;28;20050;-84
2023/11/11 11:26:39;;;;;;;0.50;0.50;;;7.70;99.90;;;;;;5054034;28;20040;-83
2023/11/11 11:29:13;;;;;;;0.50;0.50;;;7.70;99.90;;;;;;5017719;28;20051;-82
2023/11/11 11:32:03;;;;;;;0.43;0.43;;;7.70;99.90;;;;;;5039680;28;20039;-83
2023/11/11 11:34:30;;;;;;;0.40;0.40;;;7.70;99.90;;;;;;5036274;28;20460;-84
2023/11/11 11:36:55;;;;;;;;;;;7.70;99.90;;;;;;5040297;28;20044;-81
2023/11/11 11:39:52;;;;;;;0.47;0.47;;;7.70;99.90;;;;;;5016058;28;19917;-82
2023/11/11 11:42:20;;;;;;;0.40;0.40;;;7.60;99.90;;;;;;5057569;28;20150;-82
2023/11/11 11:44:54;;;;;;;0.40;0.40;;;7.50;99.90;;;;;;5031020;28;20330;-81
2023/11/11 11:47:22;;;;;;;0.47;0.47;;;7.40;99.90;;;;;;5025536;28;20033;-82
2023/11/11 11:49:49;;;;;;;0.40;0.40;;;7.40;99.90;;;;;;5051141;28;20041;-82
2023/11/11 11:52:17;;;;;;;0.40;0.40;;;7.40;99.90;;;;;;5043593;28;20041;-82
2023/11/11 11:54:43;;;;;;;0.50;0.50;;;7.40;99.90;;;;;;5030372;28;20041;-81
2023/11/11 11:57:09;;;;;;;0.50;0.50;;;7.40;99.90;;;;;;5033933;28;20048;-83
2023/11/11 11:59:34;;;;;;;0.57;0.57;;;7.40;99.90;;;;;;5040406;28;20497;-82
2023/11/11 12:02:01;;;;;;;0.50;0.50;;;7.50;99.90;;;;;;5015496;28;20134;-83
2023/11/11 12:04:27;;;;;;;;;;;7.50;99.90;;;;;;5037987;28;20048;-82
2023/11/11 12:06:53;;;;;;;0.40;0.40;;;7.60;99.90;;;;;;5019374;28;19921;-81
2023/11/11 12:09:19;;;;;;;0.40;0.40;;;7.70;99.90;;;;;;5014567;28;20322;-82
2023/11/11 12:11:45;;;;;;;0.50;0.50;;;7.80;99.90;;;;;;5037176;28;20052;-83
2023/11/11 12:14:13;;;;;;;0.50;0.50;;;7.90;99.90;;;;;;5033590;28;20045;-85
2023/11/11 12:16:52;;;;;;;0.40;0.40;;;8.00;99.90;;;;;;5031421;28;20044;-82
2023/11/11 12:19:21;;;;;;;0.40;0.40;;;8.10;99.90;;;;;;5055381;28;20041;-80
2023/11/11 12:21:52;;;;;;;0.40;0.40;;;8.20;99.90;;;;;;5050086;28;20052;-83
2023/11/11 12:24:25;;;;;;;0.50;0.50;;;8.20;99.90;;;;;;5057083;28;20091;-83
2023/11/11 12:26:52;;;;;;;0.50;0.50;;;8.20;99.90;;;;;;5042881;28;20119;-82
2023/11/11 12:29:21;;;;;;;0.40;0.40;;;8.20;99.90;;;;;;5052106;28;20075;-81
2023/11/11 12:31:51;;;;;;;0.55;0.55;;;8.20;99.90;;;;;;5041499;28;20048;-81
2023/11/11 12:34:24;;;;;;;0.50;0.50;;;8.30;99.90;;;;;;5041730;28;20072;-82
2023/11/11 12:36:55;;;;;;;0.47;0.47;;;8.30;99.90;;;;;;5059654;28;20103;-82
2023/11/11 12:39:22;;;;;;;0.65;0.65;;;8.40;99.90;;;;;;5049959;28;20128;-80
2023/11/11 12:41:52;;;;;;;0.40;0.40;;;8.40;99.90;;;;;;5044919;28;20125;-81
2023/11/11 12:44:19;;;;;;;0.40;0.40;;;8.50;99.90;;;;;;5033007;28;20044;-81
2023/11/11 12:46:46;;;;;;;0.40;0.40;;;8.60;99.90;;;;;;5047087;28;20051;-82
2023/11/11 12:49:14;;;;;;;0.40;0.40;;;8.50;99.90;;;;;;5035385;28;20677;-82
2023/11/11 12:51:42;;;;;;;0.45;0.45;;;8.50;99.90;;;;;;5068728;28;20057;-82
2023/11/11 12:54:08;;;;;;;0.38;0.38;;;8.50;99.90;;;;;;5041110;28;20457;-82
2023/11/11 12:56:35;;;;;;;0.30;0.30;;;8.50;99.90;;;;;;5057514;28;20037;-82
2023/11/11 12:59:06;;;;;;;0.40;0.40;;;8.50;99.90;;;;;;5059592;28;20425;-82
2023/11/11 13:01:32;;;;;;;0.40;0.40;;;8.50;99.90;;;;;;5055653;28;20393;-81